Time;durP1;ratioP1;P1;durP2;ratioP2;P2;SDS_P1;SDS_P2;PMS_P1;PMS_P2;Temp;Humidity;BMP_temperature;BMP_pressure;BME280_temperature;BME280_humidity;BME280_pressure;Samples;Min_cycle;Max_cycle;Signal;HPM_P1;HPM_P2
2022/04/21 00:00:37;;;;;;;6.88;6.07;;;;;;;1.06;100.00;62105.16;5120757;28;21409;-75
2022/04/21 00:03:05;;;;;;;8.88;7.18;;;;;;;1.07;100.00;62111.19;5121201;28;20229;-75
2022/04/21 00:05:32;;;;;;;7.13;6.40;;;;;;;1.08;100.00;62106.69;5121946;28;20199;-74
2022/04/21 00:08:00;;;;;;;7.10;6.15;;;;;;;1.05;100.00;62103.63;5122099;28;20219;-76
2022/04/21 00:10:28;;;;;;;7.68;6.95;;;;;;;1.04;100.00;62107.59;5119087;28;20195;-74
2022/04/21 00:12:55;;;;;;;10.75;6.72;;;;;;;1.04;100.00;62105.59;5122374;28;20211;-75
2022/04/21 00:15:25;;;;;;;8.90;6.93;;;;;;;1.02;100.00;62103.53;5126579;28;20199;-75
2022/04/21 00:17:52;;;;;;;8.00;7.20;;;;;;;1.02;100.00;62103.03;5123618;28;20241;-75
2022/04/21 00:20:19;;;;;;;8.25;6.95;;;;;;;1.07;100.00;62103.16;5120208;28;20435;-75
2022/04/21 00:25:30;;;;;;;8.02;7.00;;;;;;;1.05;100.00;62104.09;5126535;28;20532;-74
2022/04/21 00:27:58;;;;;;;7.88;7.00;;;;;;;1.04;100.00;62102.56;5124569;28;20226;-75
2022/04/21 00:30:26;;;;;;;6.70;5.82;;;;;;;1.01;100.00;62102.00;5124499;28;20207;-75
2022/04/21 00:32:53;;;;;;;7.93;6.80;;;;;;;1.04;100.00;62102.56;5127496;28;20219;-74
2022/04/21 00:35:20;;;;;;;7.97;6.80;;;;;;;1.03;100.00;62102.06;5128681;28;20267;-74
2022/04/21 00:37:50;;;;;;;8.85;7.55;;;;;;;1.01;100.00;62102.53;5124012;28;20219;-74
2022/04/21 00:40:19;;;;;;;7.68;6.88;;;;;;;1.01;100.00;62102.53;5125601;28;20207;-75
2022/04/21 00:42:46;;;;;;;8.95;7.30;;;;;;;0.99;100.00;62100.47;5126746;28;20496;-74
2022/04/21 00:45:14;;;;;;;7.80;7.00;;;;;;;1.03;100.00;62104.56;5126733;28;20199;-75
2022/04/21 00:47:45;;;;;;;7.57;6.80;;;;;;;1.01;100.00;62102.00;5122996;28;20283;-74
2022/04/21 00:50:16;;;;;;;8.32;7.35;;;;;;;1.01;100.00;62100.03;5124557;28;20523;-75
2022/04/21 00:52:44;;;;;;;8.18;7.32;;;;;;;0.99;100.00;62095.47;5125787;28;20268;-74
2022/04/21 00:55:11;;;;;;;7.88;7.03;;;;;;;1.02;100.00;62098.53;5124154;28;20200;-73
2022/04/21 00:57:41;;;;;;;11.80;7.90;;;;;;;1.03;100.00;62107.09;5123577;28;20544;-75
2022/04/21 01:00:09;;;;;;;7.60;6.80;;;;;;;1.00;100.00;62101.00;5124745;28;20211;-75
2022/04/21 01:02:47;;;;;;;9.75;8.07;;;;;;;0.96;100.00;62097.41;5126572;28;20230;-77
2022/04/21 01:05:16;;;;;;;9.77;8.13;;;;;;;0.95;100.00;62096.38;5124505;28;20396;-76
2022/04/21 01:07:43;;;;;;;11.02;7.75;;;;;;;0.89;100.00;62089.69;5126882;28;20210;-74
2022/04/21 01:10:11;;;;;;;9.00;7.75;;;;;;;0.76;100.00;62074.38;5126474;28;20203;-74
2022/04/21 01:12:38;;;;;;;9.35;7.72;;;;;;;0.63;100.00;62058.03;5126386;28;20264;-74
2022/04/21 01:15:06;;;;;;;9.95;7.70;;;;;;;0.60;100.00;62060.47;5122934;28;20199;-75
2022/04/21 01:17:35;;;;;;;8.88;7.30;;;;;;;0.71;100.00;62071.75;5124327;28;20222;-74
2022/04/21 01:20:02;;;;;;;9.15;6.90;;;;;;;0.73;100.00;62073.28;5125381;28;20227;-76
2022/04/21 01:22:31;;;;;;;9.90;6.80;;;;;;;0.76;100.00;62074.38;5117686;28;20262;-74
2022/04/21 01:24:57;;;;;;;7.50;6.63;;;;;;;0.80;100.00;62077.97;5124133;28;20511;-75
2022/04/21 01:27:29;;;;;;;7.63;6.80;;;;;;;0.72;100.00;62072.78;5124538;28;20221;-75
2022/04/21 01:29:56;;;;;;;8.02;7.20;;;;;;;0.77;100.00;62080.41;5122747;28;20209;-75
2022/04/21 01:32:22;;;;;;;7.40;6.68;;;;;;;0.88;100.00;62086.19;5122207;28;20215;-74
2022/04/21 01:34:49;;;;;;;8.00;6.43;;;;;;;0.87;100.00;62085.66;5126892;28;20488;-74
2022/04/21 01:42:47;;;;;;;7.32;6.28;;;;;;;0.92;100.00;62090.25;5115686;28;20297;-75
2022/04/21 01:45:14;;;;;;;9.38;7.03;;;;;;;0.89;100.00;62090.22;5127563;28;20200;-74
2022/04/21 01:47:41;;;;;;;6.63;6.03;;;;;;;0.87;100.00;62085.13;5120775;28;21212;-75
2022/04/21 01:50:09;;;;;;;6.95;6.28;;;;;;;0.86;100.00;62089.63;5124423;28;20386;-75
2022/04/21 01:52:37;;;;;;;7.35;6.40;;;;;;;0.91;100.00;62089.25;5126700;28;20213;-76
2022/04/21 01:55:07;;;;;;;7.63;6.85;;;;;;;0.80;100.00;62083.50;5126230;28;20195;-75
2022/04/21 01:57:34;;;;;;;7.78;6.45;;;;;;;0.88;100.00;62088.69;5125215;28;20219;-75
2022/04/21 02:00:01;;;;;;;7.53;6.57;;;;;;;0.92;100.00;62092.78;5132738;28;20199;-75
2022/04/21 02:02:29;;;;;;;7.45;6.18;;;;;;;0.76;100.00;62076.38;5130516;28;20239;-76
2022/04/21 02:04:58;;;;;;;7.97;7.18;;;;;;;0.76;100.00;62076.38;5124905;28;20898;-75
2022/04/21 02:07:25;;;;;;;7.65;6.50;;;;;;;0.81;100.00;62081.50;5125461;28;20227;-74
2022/04/21 02:09:52;;;;;;;7.75;6.53;;;;;;;0.79;100.00;62079.97;5124874;28;20195;-75
2022/04/21 02:12:22;;;;;;;7.38;6.25;;;;;;;0.86;100.00;62087.13;5125497;28;20215;-75
2022/04/21 02:14:48;;;;;;;6.45;5.68;;;;;;;0.80;100.00;62077.97;5120460;28;20219;-75
2022/04/21 02:17:15;;;;;;;7.22;6.30;;;;;;;0.73;100.00;62076.31;5124593;28;20235;-75
2022/04/21 02:19:43;;;;;;;7.78;6.68;;;;;;;0.81;100.00;62084.50;5125905;28;20199;-76
2022/04/21 02:22:10;;;;;;;7.22;6.32;;;;;;;0.83;100.00;62081.56;5125763;28;20235;-75
2022/04/21 02:24:37;;;;;;;6.80;5.85;;;;;;;0.83;100.00;62084.06;5122414;28;20260;-75
2022/04/21 02:27:04;;;;;;;6.95;6.25;;;;;;;0.85;100.00;62083.59;5124922;28;20436;-76
2022/04/21 02:29:33;;;;;;;6.75;5.68;;;;;;;0.87;100.00;62085.13;5124813;28;20227;-75
2022/04/21 02:32:01;;;;;;;7.65;6.55;;;;;;;0.83;100.00;62083.53;5124357;28;20484;-75
2022/04/21 02:34:29;;;;;;;7.18;6.35;;;;;;;0.88;100.00;62088.69;5120303;28;20210;-76
2022/04/21 02:36:57;;;;;;;7.28;6.57;;;;;;;0.82;100.00;62080.53;5124331;28;20203;-76
2022/04/21 02:39:24;;;;;;;8.57;6.85;;;;;;;0.80;100.00;62078.47;5121634;28;20410;-75
2022/04/21 02:41:51;;;;;;;7.40;6.65;;;;;;;0.74;100.00;62071.81;5120877;28;20261;-75
2022/04/21 02:44:18;;;;;;;8.85;6.90;;;;;;;0.73;100.00;62073.81;5125636;28;20199;-76
2022/04/21 02:46:46;;;;;;;6.65;5.95;;;;;;;0.71;100.00;62071.22;5123435;28;20241;-75
2022/04/21 02:49:15;;;;;;;7.13;6.40;;;;;;;0.72;100.00;62072.28;5123316;28;20216;-75
2022/04/21 02:51:43;;;;;;;6.68;6.00;;;;;;;0.69;100.00;62067.19;5119879;28;20211;-75
2022/04/21 02:59:40;;;;;;;9.60;8.10;;;;;;;0.66;100.00;62064.13;5121934;28;20205;-75
2022/04/21 03:02:08;;;;;;;7.80;6.97;;;;;;;0.65;100.00;62065.09;5122789;28;20276;-76
2022/04/21 03:04:35;;;;;;;10.00;7.45;;;;;;;0.64;100.00;62061.56;5123011;28;20191;-77
2022/04/21 03:07:02;;;;;;;9.93;7.05;;;;;;;0.65;100.00;62065.09;5119755;28;20219;-76
2022/04/21 03:09:29;;;;;;;7.80;7.10;;;;;;;0.57;100.00;62059.91;5116997;28;20203;-76
2022/04/21 03:12:01;;;;;;;9.25;7.53;;;;;;;0.60;100.00;62062.47;5125204;28;20240;-76
2022/04/21 03:14:28;;;;;;;9.60;7.60;;;;;;;0.63;100.00;62063.56;5125973;28;20216;-75
2022/04/21 03:16:55;;;;;;;8.93;7.50;;;;;;;0.61;100.00;62059.00;5125029;28;20191;-76
2022/04/21 03:19:24;;;;;;;9.80;8.43;;;;;;;0.68;100.00;62068.16;5111374;28;20200;-76
2022/04/21 03:24:35;;;;;;;9.98;7.75;;;;;;;0.67;100.00;62062.13;5118102;28;20217;-75
2022/04/21 03:27:03;;;;;;;11.82;8.63;;;;;;;0.55;100.00;62054.84;5121154;28;20242;-77
2022/04/21 03:29:30;;;;;;;11.13;8.93;;;;;;;0.61;100.00;62061.50;5122534;28;20195;-75
2022/04/21 03:31:57;;;;;;;9.50;8.50;;;;;;;0.68;100.00;62070.66;5124221;28;20205;-76
2022/04/21 03:34:25;;;;;;;10.88;8.90;;;;;;;0.61;100.00;62064.00;5123420;28;20455;-77
2022/04/21 03:36:52;;;;;;;10.00;7.65;;;;;;;0.57;100.00;62059.91;5119876;28;20203;-75
2022/04/21 03:39:21;;;;;;;13.50;9.02;;;;;;;0.59;100.00;62061.94;5123262;28;20199;-76
2022/04/21 03:41:53;;;;;;;12.75;9.25;;;;;;;0.71;100.00;62069.25;5123561;28;20250;-76
2022/04/21 03:44:20;;;;;;;10.32;8.60;;;;;;;0.79;100.00;62081.94;5124519;28;20536;-76
2022/04/21 03:46:47;;;;;;;11.70;8.00;;;;;;;0.77;100.00;62080.41;5117999;28;20209;-76
2022/04/21 03:49:14;;;;;;;9.68;7.90;;;;;;;0.81;100.00;62082.00;5121499;28;20244;-76
2022/04/21 03:51:43;;;;;;;8.68;7.45;;;;;;;0.89;100.00;62085.22;5125093;28;20195;-76
2022/04/21 03:54:10;;;;;;;11.80;8.48;;;;;;;0.94;100.00;62094.81;5119638;28;20384;-76
2022/04/21 03:56:37;;;;;;;12.10;8.40;;;;;;;0.98;100.00;62093.94;5122865;28;20241;-76
2022/04/21 03:59:04;;;;;;;11.95;8.93;;;;;;;0.98;100.00;62099.44;5116712;28;20225;-75
2022/04/21 04:01:31;;;;;;;12.52;9.32;;;;;;;0.97;100.00;62095.91;5124018;28;20191;-76
2022/04/21 04:03:58;;;;;;;9.10;7.40;;;;;;;1.08;100.00;62109.72;5117710;28;20293;-76
2022/04/21 04:11:55;;;;;;;9.52;7.47;;;;;;;1.35;100.00;62136.88;5119058;28;20221;-76
2022/04/21 04:14:22;;;;;;;10.18;7.95;;;;;;;1.43;100.00;62140.09;5115580;28;20195;-77
2022/04/21 04:16:49;;;;;;;10.98;9.05;;;;;;;1.53;100.00;62150.34;5122683;28;20211;-77
2022/04/21 04:19:16;;;;;;;12.63;8.75;;;;;;;1.63;100.00;62165.63;5122253;28;20257;-77
2022/04/21 04:21:43;;;;;;;11.23;9.00;;;;;;;1.72;100.00;62174.34;5106991;28;20249;-77
2022/04/21 04:24:11;;;;;;;9.75;8.23;;;;;;;1.84;100.00;62187.19;5122385;28;20219;-76
2022/04/21 04:26:38;;;;;;;11.55;8.23;;;;;;;1.97;100.00;62200.00;5123467;28;20192;-76
2022/04/21 04:29:05;;;;;;;12.57;9.43;;;;;;;2.11;100.00;62216.88;5121776;28;20219;-76
2022/04/21 04:31:32;;;;;;;13.60;9.75;;;;;;;2.25;100.00;62231.28;5119358;28;20187;-76
2022/04/21 04:33:58;;;;;;;11.82;9.00;;;;;;;2.34;100.00;62240.53;5123233;28;20223;-75
2022/04/21 04:36:25;;;;;;;10.60;8.27;;;;;;;2.50;100.00;62251.41;5123820;28;20188;-75
2022/04/21 04:38:52;;;;;;;9.73;8.00;;;;;;;2.60;100.00;62261.69;5108651;28;20219;-75
2022/04/21 04:44:05;;;;;;;12.15;8.88;;;;;;;2.68;100.00;62269.91;5125301;28;20235;-75
2022/04/21 04:46:37;;;;;;;8.88;7.60;;;;;;;2.79;100.00;62286.22;5126024;28;20267;-75
2022/04/21 04:49:06;;;;;;;10.90;8.68;;;;;;;2.84;100.00;62283.81;5120176;28;20495;-75
2022/04/21 04:51:34;;;;;;;9.75;7.97;;;;;;;2.93;100.00;62300.63;5121358;28;20206;-75
2022/04/21 04:54:06;;;;;;;13.07;8.77;;;;;;;2.82;100.00;62286.78;5122741;28;20219;-74
2022/04/21 04:56:34;;;;;;;15.82;11.68;;;;;;;2.59;100.00;62268.19;5123216;28;20460;-75
2022/04/21 04:59:01;;;;;;;17.75;12.48;;;;;;;2.27;100.00;62228.31;5117396;28;20246;-74
2022/04/21 05:01:31;;;;;;;19.50;13.82;;;;;;;2.21;100.00;62222.66;5123637;28;20221;-74
2022/04/21 05:04:02;;;;;;;16.77;12.43;;;;;;;2.18;100.00;62222.09;5127194;28;20227;-74
2022/04/21 05:06:29;;;;;;;19.70;13.80;;;;;;;2.16;100.00;62222.53;5127705;28;20224;-75
2022/04/21 05:08:57;;;;;;;17.13;12.15;;;;;;;2.41;100.00;62239.66;5123094;28;20230;-75
2022/04/21 05:11:25;;;;;;;13.75;11.07;;;;;;;2.43;100.00;62244.22;5127348;28;20257;-74
2022/04/21 05:13:54;;;;;;;15.60;11.55;;;;;;;2.52;100.00;62253.97;5127666;28;20253;-75
2022/04/21 05:16:21;;;;;;;15.57;11.73;;;;;;;2.63;100.00;62267.78;5126029;28;20204;-75
2022/04/21 05:18:49;;;;;;;14.90;11.05;;;;;;;2.81;100.00;62283.25;5124758;28;20233;-75
2022/04/21 05:21:17;;;;;;;13.07;10.68;;;;;;;2.67;100.00;62269.41;5125643;28;20231;-74
2022/04/21 05:23:47;;;;;;;12.98;10.13;;;;;;;2.67;100.00;62273.91;5124681;28;20231;-74
2022/04/21 05:26:14;;;;;;;15.90;11.82;;;;;;;2.57;100.00;62261.13;5122258;28;20241;-75
2022/04/21 05:28:41;;;;;;;18.63;12.07;;;;;;;2.45;100.00;62249.28;5124401;28;20263;-74
2022/04/21 05:31:09;;;;;;;20.10;12.90;;;;;;;2.70;100.00;62274.97;5123810;28;20300;-75
2022/04/21 05:33:37;;;;;;;21.48;14.13;;;;;;;2.93;100.00;62298.09;5126081;28;20219;-75
2022/04/21 05:36:06;;;;;;;20.85;14.43;;;;;;;2.95;100.00;62300.66;5121410;28;20200;-75
2022/04/21 05:38:34;;;;;;;16.02;12.25;;;;;;;2.92;100.00;62300.09;5126337;28;20219;-75
2022/04/21 05:41:03;;;;;;;15.75;11.23;;;;;;;2.82;100.00;62284.81;5126447;28;20206;-74
2022/04/21 05:43:40;;;;;;;19.05;13.00;;;;;;;3.01;100.00;62308.84;5125790;28;20463;-75
2022/04/21 05:46:10;;;;;;;19.63;12.50;;;;;;;3.23;100.00;62326.41;5127795;28;20195;-75
2022/04/21 05:48:37;;;;;;;17.27;12.90;;;;;;;3.06;100.00;62317.00;5127119;28;20223;-75
2022/04/21 05:51:05;;;;;;;16.90;12.13;;;;;;;3.25;100.00;62331.00;5128186;28;20195;-76
2022/04/21 05:53:34;;;;;;;16.35;12.07;;;;;;;3.28;100.00;62332.06;5122585;28;20219;-76
2022/04/21 05:56:02;;;;;;;16.80;12.30;;;;;;;3.50;100.00;62354.69;5126325;28;20206;-75
2022/04/21 05:58:28;;;;;;;24.00;15.07;;;;;;;3.93;100.00;62397.88;5125978;28;20211;-76
2022/04/21 06:00:55;;;;;;;17.70;12.80;;;;;;;4.22;100.00;62425.72;5125651;28;20196;-75
2022/04/21 06:03:24;;;;;;;13.10;10.38;;;;;;;4.39;100.00;62448.25;5122192;28;20235;-75
2022/04/21 06:05:51;;;;;;;13.93;10.98;;;;;;;4.69;100.00;62481.63;5126405;28;20195;-75
2022/04/21 06:08:19;;;;;;;15.80;11.75;;;;;;;4.97;100.00;62506.91;5126553;28;20250;-75
2022/04/21 06:10:46;;;;;;;16.95;12.15;;;;;;;5.04;100.00;62514.63;5121848;28;20269;-76
2022/04/21 06:13:15;;;;;;;14.98;11.13;;;;;;;5.33;100.00;62544.00;5123991;28;20219;-75
2022/04/21 06:15:42;;;;;;;13.05;9.80;;;;;;;5.10;100.00;62520.81;5125830;28;20444;-75
2022/04/21 06:18:09;;;;;;;12.95;10.15;;;;;;;5.09;100.00;62519.28;5124640;28;20282;-75
2022/04/21 06:20:38;;;;;;;12.80;9.93;;;;;;;5.32;100.00;62540.44;5120116;28;20200;-75
2022/04/21 06:23:05;;;;;;;10.02;8.90;;;;;;;5.29;100.00;62540.38;5124847;28;20293;-76
2022/04/21 06:25:31;;;;;;;13.73;9.98;;;;;;;5.17;100.00;62530.56;5125262;28;20292;-75
2022/04/21 06:27:58;;;;;;;11.85;9.90;;;;;;;5.12;100.00;62522.88;5124332;28;20268;-77
2022/04/21 06:30:25;;;;;;;9.73;8.35;;;;;;;5.30;100.00;62541.41;5121076;28;20252;-75
2022/04/21 06:32:53;;;;;;;9.95;8.48;;;;;;;5.30;100.00;62541.41;5124985;28;20219;-76
2022/04/21 06:35:20;;;;;;;11.55;8.10;;;;;;;5.04;100.00;62517.16;5125168;28;20207;-76
2022/04/21 06:37:48;;;;;;;10.27;8.25;;;;;;;5.54;100.00;62563.09;5123254;28;20219;-75
2022/04/21 06:40:15;;;;;;;11.75;9.43;;;;;;;5.94;100.00;62606.84;5117712;28;20388;-75
2022/04/21 06:42:43;;;;;;;9.52;7.65;;;;;;;6.06;100.00;62621.25;5126036;28;20219;-76
2022/04/21 06:48:04;;;;;;;9.25;8.35;;;;;;;5.65;100.00;62579.47;5120905;28;20256;-77
2022/04/21 06:50:32;;;;;;;8.95;7.57;;;;;;;5.85;100.00;62598.09;5125098;28;20191;-76
2022/04/21 06:53:01;;;;;;;9.00;7.70;;;;;;;5.85;100.00;62600.09;5127487;28;20227;-76
2022/04/21 06:55:28;;;;;;;8.63;7.75;;;;;;;6.18;100.00;62633.63;5126377;28;20214;-76
2022/04/21 06:57:55;;;;;;;9.73;8.73;;;;;;;6.17;100.00;62630.56;5122055;28;20253;-77
2022/04/21 07:00:22;;;;;;;9.45;8.02;;;;;;;5.85;100.00;62595.56;5124603;28;20319;-75
2022/04/21 07:02:52;;;;;;;9.68;8.50;;;;;;;5.93;100.00;62605.31;5123181;28;20231;-75
2022/04/21 07:05:19;;;;;;;11.48;8.95;;;;;;;6.35;100.00;62643.56;5120790;28;20213;-76
2022/04/21 07:07:47;;;;;;;11.32;8.63;;;;;;;6.87;100.00;62699.69;5115719;28;20243;-76
2022/04/21 07:10:16;;;;;;;9.20;8.30;;;;;;;6.84;99.23;62699.13;5116902;28;20369;-77
2022/04/21 07:12:43;;;;;;;8.13;7.32;;;;;;;6.41;99.75;62652.25;5125829;28;20248;-77
2022/04/21 07:15:11;;;;;;;8.60;7.70;;;;;;;6.58;100.00;62675.38;5121673;28;20196;-77
2022/04/21 07:17:39;;;;;;;9.60;8.70;;;;;;;6.96;100.00;62706.97;5123817;28;20286;-77
2022/04/21 07:20:08;;;;;;;9.75;8.60;;;;;;;7.40;100.00;62759.44;5126547;28;20554;-78
2022/04/21 07:22:35;;;;;;;8.75;7.95;;;;;;;7.69;98.74;62789.38;5126012;28;20256;-77
2022/04/21 07:25:04;;;;;;;8.15;7.35;;;;;;;7.78;96.52;62798.16;5120543;28;20208;-78
2022/04/21 07:27:32;;;;;;;8.73;7.10;;;;;;;7.57;94.09;62771.91;5124885;28;20237;-77
2022/04/21 07:30:00;;;;;;;9.45;8.25;;;;;;;7.54;95.40;62775.91;5125226;28;20225;-77
2022/04/21 07:32:27;;;;;;;7.85;7.05;;;;;;;7.23;93.62;62738.84;5123136;28;20224;-77
2022/04/21 07:34:54;;;;;;;9.07;7.65;;;;;;;6.41;96.49;62659.84;5118244;28;20199;-77
2022/04/21 07:37:21;;;;;;;9.18;7.53;;;;;;;6.20;100.00;62636.19;5119884;28;20413;-76
2022/04/21 07:39:48;;;;;;;9.68;8.00;;;;;;;6.02;100.00;62615.09;5116181;28;20212;-76
2022/04/21 07:42:15;;;;;;;9.60;8.10;;;;;;;6.19;100.00;62629.59;5121856;28;20229;-76
2022/04/21 07:44:43;;;;;;;9.88;8.43;;;;;;;6.01;100.00;62614.06;5121342;28;20280;-76
2022/04/21 07:47:10;;;;;;;8.68;6.97;;;;;;;6.40;100.00;62654.25;5119644;28;20235;-76
2022/04/21 07:49:46;;;;;;;8.73;7.95;;;;;;;6.22;100.00;62635.72;5115988;28;20424;-77
2022/04/21 07:55:07;;;;;;;9.38;8.00;;;;;;;5.88;100.00;62601.19;5116252;28;20261;-76
2022/04/21 07:57:34;;;;;;;9.63;8.02;;;;;;;6.13;100.00;62620.84;5111169;28;20217;-76
2022/04/21 08:00:04;;;;;;;10.70;8.40;;;;;;;6.61;100.00;62677.94;5125377;28;20203;-77
2022/04/21 08:02:31;;;;;;;9.63;8.15;;;;;;;7.00;99.28;62718.16;5111855;28;20235;-76
2022/04/21 08:04:58;;;;;;;9.70;7.57;;;;;;;7.13;97.31;62729.03;5117841;28;20234;-77
2022/04/21 08:07:26;;;;;;;8.25;7.45;;;;;;;6.44;96.72;62660.91;5137323;28;20258;-78
2022/04/21 08:09:52;;;;;;;9.95;8.68;;;;;;;6.43;100.00;62661.91;5120205;28;20208;-76
2022/04/21 08:12:19;;;;;;;10.70;8.30;;;;;;;6.73;100.00;62690.81;5127737;28;20229;-76
2022/04/21 08:14:46;;;;;;;9.77;8.82;;;;;;;6.83;99.35;62698.09;5122940;28;20203;-76
2022/04/21 08:17:15;;;;;;;10.63;9.00;;;;;;;7.24;99.99;62737.88;5130814;28;20218;-76
2022/04/21 08:19:42;;;;;;;12.10;8.50;;;;;;;7.47;98.81;62764.13;5137252;28;20195;-76
2022/04/21 08:22:08;;;;;;;10.32;8.95;;;;;;;7.86;95.83;62803.88;5125645;28;20264;-77
2022/04/21 08:32:50;;;;;;;11.07;9.77;;;;;;;8.16;95.16;62837.88;5122871;28;20349;-75
2022/04/21 08:35:17;;;;;;;15.57;8.85;;;;;;;8.30;96.11;62849.31;5121129;28;20497;-76
2022/04/21 08:37:45;;;;;;;11.88;8.18;;;;;;;8.50;91.33;62869.97;5140671;27;20215;-77
2022/04/21 08:40:12;;;;;;;12.20;7.85;;;;;;;8.25;90.12;62843.66;5125948;28;20479;-78
2022/04/21 08:42:41;;;;;;;10.32;8.32;;;;;;;8.47;90.21;62871.44;5123787;27;20219;-76
2022/04/21 08:45:10;;;;;;;9.65;8.55;;;;;;;8.81;88.96;62904.03;5124751;28;20237;-76
2022/04/21 08:47:39;;;;;;;9.02;8.23;;;;;;;8.31;86.13;62852.91;5127850;28;20267;-76
2022/04/21 08:50:12;;;;;;;10.23;8.85;;;;;;;8.31;88.86;62850.34;5127242;28;20221;-76
2022/04/21 08:52:40;;;;;;;10.93;8.70;;;;;;;8.80;88.59;62900.47;5127293;28;20622;-76
2022/04/21 08:55:08;;;;;;;9.05;7.43;;;;;;;8.99;87.46;62922.66;5126826;28;20211;-77
2022/04/21 08:57:36;;;;;;;8.23;7.43;;;;;;;8.73;84.53;62896.28;5129881;28;20227;-76
2022/04/21 09:00:05;;;;;;;8.50;7.65;;;;;;;8.95;88.31;62919.03;5130169;28;20387;-76
2022/04/21 09:02:40;;;;;;;9.05;8.00;;;;;;;9.31;82.95;62955.72;5129019;28;20250;-77
2022/04/21 09:05:10;;;;;;;10.80;8.38;;;;;;;9.66;84.06;62988.84;5129463;28;20290;-77
2022/04/21 09:07:45;;;;;;;8.90;7.80;;;;;;;9.90;80.70;63016.19;5128995;28;20219;-76
2022/04/21 09:10:12;;;;;;;10.80;8.98;;;;;;;9.82;79.56;63005.91;5128062;28;20187;-76
2022/04/21 09:12:43;;;;;;;14.93;8.80;;;;;;;9.73;78.84;62996.59;5119208;28;20211;-76
2022/04/21 09:15:12;;;;;;;11.95;8.35;;;;;;;9.64;79.66;62987.28;5124756;28;20368;-77
2022/04/21 09:17:44;;;;;;;12.57;8.85;;;;;;;9.21;83.18;62945.88;5127694;27;20272;-76
2022/04/21 09:20:14;;;;;;;8.77;7.95;;;;;;;9.87;82.76;63010.56;5124186;27;20200;-75
2022/04/21 09:22:43;;;;;;;12.38;9.13;;;;;;;10.19;79.39;63046.75;5121856;28;20556;-76
2022/04/21 09:25:11;;;;;;;11.50;9.15;;;;;;;10.15;80.20;63040.06;5120143;28;20276;-76
2022/04/21 09:27:40;;;;;;;12.95;9.57;;;;;;;9.79;81.88;63007.88;5126250;27;20550;-75
2022/04/21 09:30:10;;;;;;;11.93;10.32;;;;;;;10.11;81.75;63035.91;5126791;27;20516;-75
2022/04/21 09:32:39;;;;;;;14.02;10.90;;;;;;;9.56;82.46;62979.00;5139869;27;20233;-77
2022/04/21 09:35:07;;;;;;;14.25;10.25;;;;;;;9.34;81.96;62956.78;5125187;28;20230;-76
2022/04/21 09:37:45;;;;;;;20.88;11.38;;;;;;;9.29;81.46;62948.56;5124603;27;20418;-77
2022/04/21 09:40:13;;;;;;;14.55;10.88;;;;;;;9.14;84.43;62938.13;5131665;27;20207;-75
2022/04/21 09:42:40;;;;;;;14.25;11.07;;;;;;;9.13;83.54;62939.63;5123525;27;20527;-77
2022/04/21 09:47:54;;;;;;;18.48;10.85;;;;;;;9.25;87.32;62949.50;5145532;27;20343;-75
2022/04/21 09:50:25;;;;;;;18.80;10.90;;;;;;;9.59;84.22;62984.66;5146563;27;20255;-77
2022/04/21 09:52:55;;;;;;;18.10;11.45;;;;;;;9.49;83.12;62974.31;5132665;27;20382;-75
2022/04/21 09:55:26;;;;;;;13.32;10.57;;;;;;;9.94;84.26;63015.25;5125651;27;20206;-75
2022/04/21 09:58:04;;;;;;;14.85;10.60;;;;;;;10.73;84.08;63104.66;5114265;27;20247;-75
2022/04/21 10:00:32;;;;;;;12.82;10.55;;;;;;;11.25;75.09;63152.88;5125032;28;20210;-76
2022/04/21 10:03:01;;;;;;;12.32;11.02;;;;;;;11.10;76.51;63142.44;5122483;28;20552;-77
2022/04/21 10:05:30;;;;;;;17.42;10.63;;;;;;;10.79;73.74;63108.31;5118657;28;20246;-77
2022/04/21 10:08:01;;;;;;;17.25;10.82;;;;;;;10.21;77.27;63048.28;5129119;27;20231;-75
2022/04/21 10:10:29;;;;;;;12.95;11.40;;;;;;;9.75;79.73;63003.75;5136798;27;20259;-76
2022/04/21 10:12:56;;;;;;;15.63;11.95;;;;;;;10.05;79.82;63031.72;5128260;27;20231;-76
2022/04/21 10:15:25;;;;;;;16.55;11.43;;;;;;;10.52;79.32;63082.91;5147077;27;20399;-76
2022/04/21 10:17:51;;;;;;;13.57;10.57;;;;;;;9.75;80.27;63000.69;5138856;27;20225;-77
2022/04/21 10:20:22;;;;;;;13.00;10.98;;;;;;;10.00;82.00;63024.53;5129428;27;20195;-76
2022/04/21 10:22:50;;;;;;;18.88;11.68;;;;;;;10.13;81.76;63040.53;5124842;28;20555;-76
2022/04/21 10:25:19;;;;;;;15.25;11.77;;;;;;;10.67;79.95;63095.91;5126886;27;20227;-75
2022/04/21 10:27:49;;;;;;;21.90;11.73;;;;;;;10.38;77.56;63068.94;5123173;28;20215;-75
2022/04/21 10:30:21;;;;;;;17.20;10.80;;;;;;;10.35;78.44;63065.84;5124696;28;20207;-75
2022/04/21 10:32:49;;;;;;;17.80;10.63;;;;;;;10.44;76.78;63075.16;5128471;27;20236;-75
2022/04/21 10:35:41;;;;;;;14.85;9.95;;;;;;;10.84;77.11;63112.97;5132180;27;20201;-76
2022/04/21 10:38:25;;;;;;;13.35;10.82;;;;;;;10.58;79.08;63086.56;5124807;27;20520;-76
2022/04/21 10:41:03;;;;;;;16.83;11.40;;;;;;;10.75;73.19;63101.63;5142011;27;20208;-75
2022/04/21 10:44:04;;;;;;;12.63;10.70;;;;;;;10.53;78.91;63076.31;5137441;27;20543;-76
2022/04/21 10:46:31;;;;;;;15.15;10.70;;;;;;;11.18;76.35;63148.69;5121561;28;20221;-76
2022/04/21 10:48:59;;;;;;;13.32;10.73;;;;;;;10.63;78.53;63091.75;5124757;28;20219;-75
2022/04/21 10:58:18;;;;;;;13.95;11.05;;;;;;;11.53;73.57;63186.97;5092444;28;20505;-75
2022/04/21 11:00:44;;;;;;;13.48;10.57;;;;;;;10.61;76.02;63091.72;5125261;27;20207;-76
2022/04/21 11:03:11;;;;;;;14.40;10.63;;;;;;;11.00;77.45;63130.06;5121940;28;20279;-75
2022/04/21 11:05:39;;;;;;;14.73;11.60;;;;;;;10.78;75.63;63107.28;5122506;28;20222;-77
2022/04/21 11:08:13;;;;;;;13.20;11.10;;;;;;;11.09;77.77;63139.38;5128769;27;20246;-76
2022/04/21 11:10:42;;;;;;;13.15;10.40;;;;;;;11.50;75.42;63181.31;5124679;28;20275;-75
2022/04/21 11:13:12;;;;;;;16.88;11.10;;;;;;;11.84;72.55;63214.00;5122890;28;20222;-76
2022/04/21 11:15:49;;;;;;;20.70;10.02;;;;;;;11.60;71.23;63189.66;5118575;28;20256;-76
2022/04/21 11:18:20;;;;;;;16.92;10.68;;;;;;;11.52;76.23;63181.38;5127779;27;20407;-75
2022/04/21 11:20:48;;;;;;;12.02;9.98;;;;;;;11.38;71.96;63166.34;5125166;27;20203;-76
2022/04/21 11:23:23;;;;;;;17.85;11.75;;;;;;;11.12;74.92;63141.97;5121597;27;20226;-77
2022/04/21 11:25:51;;;;;;;13.50;10.60;;;;;;;11.01;74.50;63133.13;5121529;28;20499;-76
2022/04/21 11:28:27;;;;;;;22.02;10.35;;;;;;;10.96;77.31;63123.38;5124481;28;20539;-76
2022/04/21 11:30:56;;;;;;;13.13;10.38;;;;;;;11.27;78.03;63154.94;5118769;28;20191;-75
2022/04/21 11:33:23;;;;;;;14.15;10.88;;;;;;;11.57;77.91;63191.13;5137151;27;20233;-76
2022/04/21 11:35:51;;;;;;;14.27;10.68;;;;;;;11.91;74.63;63221.25;5127925;27;20217;-75
2022/04/21 11:38:17;;;;;;;16.35;10.95;;;;;;;11.78;73.08;63205.25;5123822;28;20294;-75
2022/04/21 11:40:45;;;;;;;19.48;11.88;;;;;;;11.13;78.62;63143.00;5122413;28;20195;-76
2022/04/21 11:43:17;;;;;;;13.10;10.23;;;;;;;10.62;77.51;63088.19;5121522;28;20219;-76
2022/04/21 11:45:55;;;;;;;13.68;10.32;;;;;;;10.70;79.55;63098.50;5137589;27;20282;-76
2022/04/21 11:48:28;;;;;;;15.35;11.60;;;;;;;11.14;80.31;63146.59;5118152;28;20227;-75
2022/04/21 11:50:55;;;;;;;18.45;11.10;;;;;;;11.38;80.10;63166.88;5118720;28;20385;-76
2022/04/21 11:53:21;;;;;;;12.63;10.60;;;;;;;11.28;79.25;63156.50;5117078;28;20219;-75
2022/04/21 11:55:49;;;;;;;12.45;10.30;;;;;;;11.57;79.81;63186.53;5118754;28;20199;-75
2022/04/21 11:58:27;;;;;;;18.23;10.27;;;;;;;11.68;79.43;63204.56;5124577;28;20290;-76
2022/04/21 12:06:48;;;;;;;19.40;11.07;;;;;;;11.95;77.45;63227.97;5079444;28;20268;-77
2022/04/21 12:09:17;;;;;;;13.65;10.60;;;;;;;12.17;78.61;63252.78;5081215;28;20196;-76
2022/04/21 12:11:47;;;;;;;14.07;11.35;;;;;;;12.66;77.42;63296.47;5091660;28;20226;-75
2022/04/21 12:14:15;;;;;;;16.60;10.73;;;;;;;12.78;70.30;63308.38;5121082;28;20210;-78
2022/04/21 12:16:46;;;;;;;11.98;10.27;;;;;;;12.55;70.92;63287.59;5121877;28;20199;-77
2022/04/21 12:19:14;;;;;;;13.95;10.68;;;;;;;12.52;74.64;63283.97;5128341;28;20202;-78
2022/04/21 12:21:43;;;;;;;12.43;10.80;;;;;;;13.11;72.10;63347.72;5127377;28;20221;-77
2022/04/21 12:24:15;;;;;;;15.00;10.90;;;;;;;13.32;67.02;63366.94;5125907;28;20234;-77
2022/04/21 12:26:51;;;;;;;13.73;10.50;;;;;;;13.71;65.98;63409.47;5121965;28;20195;-77